Aviation Digital Data Service (ADDS)

Output produced by METARs form (1753 UTC 24 March 2017)
found at http://www.aviationweather.gov/adds/metars/
 
LTAF 241720Z VRB02KT CAVOK 15/07 Q1016 NOSIG RMK RWY23 VRB02KT
TAF LTAF 241640Z 2418/2518 VRB02KT CAVOK
       
LTCP 241250Z 10005KT 060V160 CAVOK 18/M03 Q1014
TAF LTCP 241340Z 2415/2424 03012KT CAVOK
       
LTBJ 241720Z 02014KT CAVOK 16/06 Q1017 NOSIG RMK RWY16 01012KT
TAF LTBJ 241640Z 2418/2518 36013KT CAVOK 
     BECMG 2418/2421 VRB02KT 
     BECMG 2506/2509 36013KT
       
TAF LTAH 241340Z 2415/2424 VRB02KT CAVOK
       
LTCO 241350Z 33004KT CAVOK 03/M05 Q1020
TAF LTCO 241340Z 2415/2424 32008KT CAVOK
       
TAF LTBT 241340Z 2415/2424 32008KT CAVOK
       
TAF LTAE 241640Z 2418/2503 VRB02KT CAVOK
       
LTBY 241650Z 27006KT 250V320 CAVOK 12/M01 Q1020
TAF LTBY 241640Z 2418/2503 VRB02KT CAVOK
       
LTAI 241720Z 06005KT CAVOK 16/08 Q1016 NOSIG RMK RWY18C 04003KT 020V080 RWY36R 06005KT RWY18L 04003KT 360V090
TAF LTAI 241640Z 2418/2518 VRB02KT CAVOK 
     PROB40 2422/2502 4000 BR
       
LTBA 241720Z 03006KT 360V080 CAVOK 10/06 Q1021 NOSIG RMK RWY17L 00000KT RWY05 02006KT RWY23 03006KT
TAF COR LTBA 241640Z 2418/2524 01007KT CAVOK 
     BECMG 2419/2422 4000 BR SCT016 
     BECMG 2423/2501 1200 BCFG BKN010 
     PROB30 2501/2505 0800 FG VV006 
     BECMG 2504/2506 4000 BR SCT016 
     BECMG 2507/2509 CAVOK 
     BECMG 2516/2519 3500 BR BKN016
       
LTBF 241650Z 36003KT CAVOK 12/06 Q1021 NOSIG
TAF LTBF 241640Z 2418/2503 VRB02KT CAVOK 
     BECMG 2500/2502 4000 BR
       
TAF LTBG 241640Z 2418/2503 03008KT CAVOK
       
LTCJ 241720Z 03009KT CAVOK 07/01 Q1016 RMK RWY20 02005KT 350V050
TAF LTCJ 241640Z 2418/2518 35007KT CAVOK
       
LTBH 241650Z 36003KT 290V090 CAVOK 12/07 Q1020
TAF LTBH 241640Z 2418/2503 03008KT CAVOK
       
LTAY 241650Z 04005KT CAVOK 16/M05 Q1019
TAF LTAY 241640Z 2418/2503 VRB02KT CAVOK
       
LTFH 241650Z 00000KT CAVOK 07/05 Q1023 NOSIG
TAF LTFH 241640Z 2418/2503 VRB02KT CAVOK
       
TAF LTBL 241640Z 2418/2503 VRB02KT CAVOK
       
LTBU 241720Z VRB02KT CAVOK 09/06 Q1021 RMK RWY23 VRB02KT
TAF LTBU 241640Z 2418/2518 VRB02KT CAVOK 
     BECMG 2419/2422 4000 BR SCT016 
     PROB40 2423/2501 1200 BCFG BKN010 
     PROB30 2501/2505 0600 FG VV004 
     BECMG 2507/2509 CAVOK 
     BECMG 2509/2512 02012KT 
     BECMG 2514/2517 3500 BR BKN016
       
LTBS 241720Z VRB02KT CAVOK 16/12 Q1016 NOSIG RMK RWY19 14004KT
TAF LTBS 241640Z 2418/2518 VRB02KT CAVOK
       
LTCC 241720Z 36008KT CAVOK 12/M03 Q1016 NOSIG RMK RWY16 02008KT 360V060
TAF LTCC 241640Z 2418/2518 31008KT CAVOK
       
LTFD 241650Z 09010KT CAVOK 17/08 Q1018
TAF LTFD 241640Z 2418/2503 04008KT CAVOK
       
LTCA 241650Z 05008KT CAVOK 09/M02 Q1017 NOSIG
TAF LTCA 241640Z 2418/2503 VRB02KT CAVOK
       
LTAT 241720Z 21004KT CAVOK 05/M06 Q1017 NOSIG RMK RWY03 24004KT
TAF LTAT 241640Z 2418/2518 29008KT CAVOK
       
LTAU 241720Z 00000KT CAVOK 10/M04 Q1019 NOSIG RMK RWY07 29006KT 270V330
TAF LTAU 241640Z 2418/2518 VRB02KT CAVOK 
     BECMG 2509/2512 FEW040 
     BECMG 2514/2516 CAVOK
       
LTCD 241650Z 09004KT CAVOK 07/M06 Q1020 NOSIG
TAF LTCD 241640Z 2418/2503 VRB02KT CAVOK
       
LTCE 241720Z 25004KT CAVOK M01/M06 Q1021 NOSIG RMK RWY08R 27005KT 190V290 RWY26R 27003KT 210V290 RWY08L 29005KT
TAF LTCE 241640Z 2418/2518 VRB02KT CAVOK
       
LTAC 241720Z 33006KT 310V010 CAVOK 10/M06 Q1020 NOSIG RMK RWY21L 00000KT RWY03L 32004KT RWY21R 00000KT
TAF LTAC 241640Z 2418/2518 VRB02KT CAVOK 
     TEMPO 2510/2514 30012KT
       
TAF LTBI 241640Z 2418/2503 VRB02KT CAVOK
       
TAF LTAD 241640Z 2418/2503 VRB02KT CAVOK
       
TAF LTBK 241340Z 2415/2424 33012KT CAVOK 
     BECMG 2418/2421 VRB02KT
       
TAF LTAB 241640Z 2418/2503 VRB02KT CAVOK
       
LTAG 241720Z 16002KT CAVOK 16/05 Q1016 NOSIG
TAF LTAG 241640Z 2418/2518 VRB02KT CAVOK
       
LTCN 241650Z 10005KT CAVOK 14/00 Q1015 NOSIG
TAF LTCN 241640Z 2418/2503 VRB02KT CAVOK
       
TAF LTFA 241340Z 2415/2424 32008KT CAVOK
       
LTAZ 241720Z 02007KT 290V050 CAVOK 12/M05 Q1020 RMK RWY29 02006KT 360V070
TAF LTAZ 241640Z 2418/2518 02012KT CAVOK 
     BECMG 2420/2423 VRB02KT 
     BECMG 2509/2512 FEW040 
     BECMG 2514/2516 CAVOK
       
LTCF 241650Z 24006KT CAVOK M02/M05 Q1021
TAF LTCF 241640Z 2418/2503 VRB02KT CAVOK
       
LTAL 241250Z 04006KT CAVOK 16/M05 Q1020
TAF LTAL 241340Z 2415/2424 20007KT CAVOK
       
LTAN 241650Z 02010KT CAVOK 10/M03 Q1020 NOSIG
TAF LTAN 241640Z 2418/2503 36009KT CAVOK
       
TAF LTBN 241340Z 2415/2424 VRB02KT CAVOK
       
LTCR 241650Z 04004KT 330V080 CAVOK 15/02 Q1015
TAF LTCR 241340Z 2415/2424 01012KT CAVOK
       
LTAP 241720Z 02011KT CAVOK 09/M00 Q1020 NOSIG RMK RWY23 01010KT
TAF LTAP 241640Z 2418/2518 02008KT CAVOK
       
LTFE 241720Z 20005KT CAVOK 16/11 Q1017 NOSIG RMK RWY10 00000KT
TAF LTFE 241640Z 2418/2518 VRB02KT CAVOK 
     PROB30 2503/2506 4000 BR 
     BECMG 2508/2510 26012KT 
     BECMG 2514/2517 VRB02KT
       
LTCK 241650Z 02004KT 340V090 CAVOK 06/M04 Q1020
TAF COR LTCK 241340Z 2415/2424 VRB02KT CAVOK
       
LTAJ 241720Z 27004KT CAVOK 07/01 Q1016 NOSIG RMK RWY10 28003KT
TAF LTAJ 241640Z 2418/2518 VRB02KT CAVOK
       
LTFJ 241720Z 02007KT CAVOK 10/06 Q1021 NOSIG RMK RWY24 36006KT
TAF LTFJ 241640Z 2418/2518 01007KT CAVOK 
     BECMG 2418/2421 BKN006 
     TEMPO 2501/2505 3200 BR BKN004 
     BECMG 2506/2508 CAVOK
       
TAF LTBX 241340Z 2415/2424 VRB02KT CAVOK 
     BECMG 2417/2420 SCT015 
     BECMG 2421/2424 BKN008
       
LTCL 241350Z 02016KT CAVOK 17/M01 Q1013
TAF LTCL 241340Z 2415/2424 VRB02KT CAVOK
       
TAF LTCM 241340Z 2415/2424 12008KT CAVOK
       
TAF LTAV 241340Z 2415/2424 VRB02KT CAVOK
       
LTFC 241720Z 01006KT CAVOK 14/M07 Q1019 RMK RWY23 01008KT
TAF LTFC 241640Z 2418/2518 VRB02KT CAVOK
       
TAF LTAW 241340Z 2415/2424 09006KT CAVOK
       
LTBQ 241650Z VRB01KT 8000 NSC 08/06 Q1022 NOSIG
TAF LTBQ 241640Z 2418/2503 VRB02KT 8000 NSC 
     BECMG 2422/2501 5000 BR BKN010
       
LTCG 241720Z 10006KT CAVOK 07/04 Q1024 NOSIG RMK RWY29 11005KT
TAF LTCG 241640Z 2418/2518 VRB02KT CAVOK 
     PROB30 2500/2504 1000 BCFG BKN002
       
LTCI 241650Z 07005KT 9999 FEW035 04/M05 Q1019 NOSIG
TAF LTCI 241640Z 2418/2503 VRB02KT 9999 FEW040
       
TAF LTBP 241340Z 2415/2424 VRB02KT 6000 SCT030 
     BECMG 2415/2418 3500 BR BKN025
       
LTBR 241720Z 28003KT 240V320 7000 NSC 10/06 Q1020 NOSIG RMK RWY07 25005KT
TAF LTBR 241640Z 2418/2518 VRB02KT 7000 NSC 
     BECMG 2419/2423 2500 BR 
     PROB40 2500/2504 0100 FG VV001 
     BECMG 2506/2508 3500 BKN002 
     BECMG 2508/2511 35012KT 9999 NSW FEW040 
     BECMG 2515/2518 VRB02KT CAVOK